createdAt,value
2018-12-30T00:00:23.612Z,1012.40
2018-12-30T00:01:23.602Z,1012.36
2018-12-30T00:02:23.590Z,1012.38
2018-12-30T00:03:23.579Z,1012.41
2018-12-30T00:04:23.570Z,1012.36
2018-12-30T00:05:23.562Z,1012.32
2018-12-30T00:06:23.550Z,1012.29
2018-12-30T00:07:23.541Z,1012.33
2018-12-30T00:08:23.526Z,1012.37
2018-12-30T00:09:23.517Z,1012.34
2018-12-30T00:10:23.506Z,1012.33
2018-12-30T00:11:23.496Z,1012.29
2018-12-30T00:12:23.484Z,1012.32
2018-12-30T00:13:23.472Z,1012.29
2018-12-30T00:14:23.468Z,1012.27
2018-12-30T00:15:23.453Z,1012.27
2018-12-30T00:16:23.445Z,1012.29
2018-12-30T00:17:23.440Z,1012.18
2018-12-30T00:18:23.421Z,1012.26
2018-12-30T00:19:23.413Z,1012.26
2018-12-30T00:20:23.400Z,1012.20
2018-12-30T00:21:23.386Z,1012.20
2018-12-30T00:22:23.379Z,1012.16
2018-12-30T00:23:23.367Z,1012.21
2018-12-30T00:24:23.359Z,1012.16
2018-12-30T00:25:23.346Z,1012.13
2018-12-30T00:26:23.334Z,1012.12
2018-12-30T00:27:23.325Z,1012.10
2018-12-30T00:28:23.311Z,1012.10
2018-12-30T00:29:23.307Z,1012.09
2018-12-30T00:30:23.292Z,1012.13
2018-12-30T00:31:23.281Z,1012.10
2018-12-30T00:32:23.270Z,1012.11
2018-12-30T00:33:23.259Z,1012.11
2018-12-30T00:34:23.250Z,1012.09
2018-12-30T00:35:23.237Z,1012.12
2018-12-30T00:36:23.226Z,1012.12
2018-12-30T00:37:23.216Z,1012.11
2018-12-30T00:38:23.207Z,1012.09
2018-12-30T00:39:23.195Z,1012.11
2018-12-30T00:40:23.189Z,1012.11
2018-12-30T00:41:23.172Z,1012.05
2018-12-30T00:42:23.165Z,1012.09
2018-12-30T00:43:23.155Z,1012.06
2018-12-30T00:44:23.142Z,1012.04
2018-12-30T00:45:23.131Z,1012.06
2018-12-30T00:46:23.121Z,1012.09
2018-12-30T00:47:23.110Z,1012.08
2018-12-30T00:48:23.102Z,1012.07
2018-12-30T00:49:23.089Z,1012.05
2018-12-30T00:50:23.078Z,1012.04
2018-12-30T00:51:23.066Z,1012.05
2018-12-30T00:52:23.059Z,1012.08
2018-12-30T00:53:23.045Z,1012.12
2018-12-30T00:54:23.038Z,1012.07
2018-12-30T00:55:23.023Z,1012.01
2018-12-30T00:56:23.012Z,1012.01
2018-12-30T00:57:23.003Z,1012.07
2018-12-30T00:58:22.992Z,1012.03
2018-12-30T00:59:22.982Z,1012.01
2018-12-30T01:00:22.980Z,1011.98
2018-12-30T01:01:22.959Z,1012.03
2018-12-30T01:02:22.949Z,1012.03
2018-12-30T01:03:22.939Z,1012.01
2018-12-30T01:04:22.930Z,1012.04
2018-12-30T01:05:22.916Z,1012.03
2018-12-30T01:06:22.908Z,1012.01
2018-12-30T01:07:22.895Z,1012.06
2018-12-30T01:08:22.891Z,1012.04
2018-12-30T01:09:22.880Z,1012.05
2018-12-30T01:10:22.928Z,1012.04
2018-12-30T01:11:22.854Z,1012.05
2018-12-30T01:12:22.843Z,1012.02
2018-12-30T01:13:22.830Z,1012.07
2018-12-30T01:14:22.820Z,1012.06
2018-12-30T01:15:22.811Z,1012.08
2018-12-30T01:16:22.800Z,1012.11
2018-12-30T01:17:22.791Z,1012.09
2018-12-30T01:18:22.779Z,1012.04
2018-12-30T01:19:22.773Z,1012.05
2018-12-30T01:20:22.765Z,1012.06
2018-12-30T01:21:25.121Z,1012.07
2018-12-30T01:22:22.733Z,1012.01
2018-12-30T01:23:22.728Z,1012.05
2018-12-30T01:24:22.713Z,1012.06
2018-12-30T01:25:22.703Z,1012.09
2018-12-30T01:26:22.694Z,1012.12
2018-12-30T01:27:22.683Z,1012.13
2018-12-30T01:28:22.670Z,1012.12
2018-12-30T01:29:22.665Z,1012.08
2018-12-30T01:30:22.647Z,1012.13
2018-12-30T01:31:22.636Z,1012.09
2018-12-30T01:32:22.632Z,1012.08
2018-12-30T01:33:22.617Z,1012.13
2018-12-30T01:34:22.611Z,1012.10
2018-12-30T01:35:22.594Z,1012.07
2018-12-30T01:36:22.585Z,1012.10
2018-12-30T01:37:22.574Z,1012.12
2018-12-30T01:38:22.561Z,1012.15
2018-12-30T01:39:22.559Z,1012.15
2018-12-30T01:40:22.543Z,1012.13
2018-12-30T01:41:22.531Z,1012.10
2018-12-30T01:42:22.521Z,1012.12
2018-12-30T01:43:22.510Z,1012.10
2018-12-30T01:44:22.500Z,1012.15
2018-12-30T01:45:22.490Z,1012.09
2018-12-30T01:46:22.476Z,1012.16
2018-12-30T01:47:22.466Z,1012.13
2018-12-30T01:48:22.457Z,1012.14
2018-12-30T01:49:22.444Z,1012.14
2018-12-30T01:50:22.435Z,1012.08
2018-12-30T01:51:22.424Z,1012.18
2018-12-30T01:52:22.417Z,1012.14
2018-12-30T01:53:22.401Z,1012.16
2018-12-30T01:54:22.394Z,1012.18
2018-12-30T01:55:22.383Z,1012.12
2018-12-30T01:56:22.371Z,1012.16
2018-12-30T01:57:22.357Z,1012.14
2018-12-30T01:58:22.352Z,1012.15
2018-12-30T01:59:22.339Z,1012.23
2018-12-30T02:00:22.324Z,1012.22
2018-12-30T02:01:22.315Z,1012.20
2018-12-30T02:02:24.801Z,1012.22
2018-12-30T02:03:22.294Z,1012.19
2018-12-30T02:04:22.285Z,1012.23
2018-12-30T02:05:22.271Z,1012.23
2018-12-30T02:06:22.262Z,1012.28
2018-12-30T02:07:22.251Z,1012.26
2018-12-30T02:08:22.239Z,1012.21
2018-12-30T02:09:22.229Z,1012.25
2018-12-30T02:10:22.219Z,1012.22
2018-12-30T02:11:22.210Z,1012.18
2018-12-30T02:12:22.196Z,1012.23
2018-12-30T02:13:22.190Z,1012.25
2018-12-30T02:14:22.177Z,1012.25
2018-12-30T02:15:22.166Z,1012.20
2018-12-30T02:16:22.155Z,1012.22
2018-12-30T02:17:22.145Z,1012.19
2018-12-30T02:18:22.133Z,1012.24
2018-12-30T02:19:22.123Z,1012.15
2018-12-30T02:20:22.111Z,1012.12
2018-12-30T02:21:22.105Z,1012.17
2018-12-30T02:22:22.093Z,1012.15
2018-12-30T02:23:22.079Z,1012.21
2018-12-30T02:24:22.072Z,1012.18
2018-12-30T02:25:22.057Z,1012.18
2018-12-30T02:26:22.050Z,1012.15
2018-12-30T02:27:22.035Z,1012.19
2018-12-30T02:28:22.024Z,1012.12
2018-12-30T02:29:22.014Z,1012.18
2018-12-30T02:30:22.003Z,1012.15
2018-12-30T02:31:21.994Z,1012.14
2018-12-30T02:32:21.988Z,1012.09
2018-12-30T02:33:21.971Z,1012.15
2018-12-30T02:34:21.962Z,1012.15
2018-12-30T02:35:21.952Z,1012.14
2018-12-30T02:36:21.941Z,1012.13
2018-12-30T02:37:21.928Z,1012.12
2018-12-30T02:38:21.919Z,1012.14
2018-12-30T02:39:21.907Z,1012.15
2018-12-30T02:40:21.896Z,1012.13
2018-12-30T02:41:21.887Z,1012.13
2018-12-30T02:42:21.877Z,1012.11
2018-12-30T02:43:21.864Z,1012.08
2018-12-30T02:44:21.855Z,1012.11
2018-12-30T02:45:21.843Z,1012.16
2018-12-30T02:46:21.833Z,1012.14
2018-12-30T02:47:21.828Z,1012.16
2018-12-30T02:48:21.811Z,1012.12
2018-12-30T02:49:21.804Z,1012.11
2018-12-30T02:50:21.790Z,1012.14
2018-12-30T02:51:21.780Z,1012.13
2018-12-30T02:52:21.769Z,1012.10
2018-12-30T02:53:21.759Z,1012.14
2018-12-30T02:54:21.753Z,1012.11
2018-12-30T02:55:21.736Z,1012.09
2018-12-30T02:56:21.726Z,1012.10
2018-12-30T02:57:21.719Z,1012.10
2018-12-30T02:58:21.713Z,1012.05
2018-12-30T02:59:21.698Z,1012.02
2018-12-30T03:00:21.683Z,1012.03
2018-12-30T03:01:21.672Z,1012.06
2018-12-30T03:02:21.662Z,1012.02
2018-12-30T03:03:21.652Z,1012.02
2018-12-30T03:04:21.640Z,1012.01
2018-12-30T03:05:21.633Z,1011.98
2018-12-30T03:06:21.617Z,1012.01
2018-12-30T03:07:21.607Z,1012.07
2018-12-30T03:08:21.599Z,1012.03
2018-12-30T03:09:21.596Z,1012.04
2018-12-30T03:10:21.577Z,1012.05
2018-12-30T03:11:21.565Z,1012.04
2018-12-30T03:12:21.555Z,1012.07
2018-12-30T03:13:21.548Z,1012.01
2018-12-30T03:14:21.532Z,1012.03
2018-12-30T03:15:21.526Z,1012.04
2018-12-30T03:16:21.516Z,1012.00
2018-12-30T03:17:21.499Z,1012.03
2018-12-30T03:18:21.492Z,1011.97
2018-12-30T03:19:21.479Z,1012.07
2018-12-30T03:20:21.471Z,1012.05
2018-12-30T03:21:21.459Z,1012.00
2018-12-30T03:22:21.447Z,1011.99
2018-12-30T03:23:21.441Z,1012.08
2018-12-30T03:24:21.430Z,1012.02
2018-12-30T03:25:21.418Z,1012.05
2018-12-30T03:26:21.404Z,1012.06
2018-12-30T03:27:21.394Z,1012.11
2018-12-30T03:28:21.388Z,1012.05
2018-12-30T03:29:21.373Z,1012.05
2018-12-30T03:30:21.371Z,1012.09
2018-12-30T03:31:21.354Z,1012.11
2018-12-30T03:32:21.342Z,1012.09
2018-12-30T03:33:21.331Z,1012.08
2018-12-30T03:34:21.320Z,1012.08
2018-12-30T03:35:21.311Z,1012.09
2018-12-30T03:36:21.300Z,1012.13
2018-12-30T03:37:21.288Z,1012.12
2018-12-30T03:38:21.281Z,1012.08
2018-12-30T03:39:21.267Z,1012.09
2018-12-30T03:40:21.255Z,1012.11
2018-12-30T03:41:21.247Z,1012.06
2018-12-30T03:42:21.235Z,1012.08
2018-12-30T03:43:21.224Z,1012.07
2018-12-30T03:44:21.216Z,1012.10
2018-12-30T03:45:21.208Z,1012.15
2018-12-30T03:46:21.191Z,1012.14
2018-12-30T03:47:21.181Z,1012.15
2018-12-30T03:48:21.171Z,1012.10
2018-12-30T03:49:21.158Z,1012.14
2018-12-30T03:50:21.149Z,1012.17
2018-12-30T03:51:21.138Z,1012.19
2018-12-30T03:52:21.131Z,1012.22
2018-12-30T03:53:21.116Z,1012.17
2018-12-30T03:54:21.106Z,1012.22
2018-12-30T03:55:21.095Z,1012.22
2018-12-30T03:56:21.084Z,1012.23
2018-12-30T03:57:21.073Z,1012.19
2018-12-30T03:58:21.213Z,1012.17
2018-12-30T03:59:21.055Z,1012.20
2018-12-30T04:00:21.042Z,1012.21
2018-12-30T04:01:21.032Z,1012.24
2018-12-30T04:02:21.022Z,1012.26
2018-12-30T04:03:21.014Z,1012.28
2018-12-30T04:04:20.998Z,1012.32
2018-12-30T04:05:20.987Z,1012.25
2018-12-30T04:06:20.977Z,1012.26
2018-12-30T04:07:20.966Z,1012.28
2018-12-30T04:08:20.957Z,1012.27
2018-12-30T04:09:20.966Z,1012.25
2018-12-30T04:10:20.934Z,1012.28
2018-12-30T04:11:20.923Z,1012.28
2018-12-30T04:12:20.913Z,1012.29
2018-12-30T04:13:20.905Z,1012.30
2018-12-30T04:14:20.891Z,1012.37
2018-12-30T04:15:20.880Z,1012.36
2018-12-30T04:16:20.870Z,1012.37
2018-12-30T04:17:20.869Z,1012.34
2018-12-30T04:18:20.853Z,1012.32
2018-12-30T04:19:20.841Z,1012.40
2018-12-30T04:20:20.827Z,1012.40
2018-12-30T04:21:20.817Z,1012.40
2018-12-30T04:22:20.806Z,1012.44
2018-12-30T04:23:20.795Z,1012.41
2018-12-30T04:24:20.785Z,1012.40
2018-12-30T04:25:20.773Z,1012.39
2018-12-30T04:26:20.762Z,1012.45
2018-12-30T04:27:20.754Z,1012.33
2018-12-30T04:28:20.743Z,1012.44
2018-12-30T04:29:20.739Z,1012.39
2018-12-30T04:30:20.725Z,1012.49
2018-12-30T04:31:20.709Z,1012.47
2018-12-30T04:32:20.702Z,1012.43
2018-12-30T04:33:20.688Z,1012.43
2018-12-30T04:34:20.685Z,1012.49
2018-12-30T04:35:20.669Z,1012.53
2018-12-30T04:36:20.655Z,1012.41
2018-12-30T04:37:20.650Z,1012.44
2018-12-30T04:38:20.635Z,1012.52
2018-12-30T04:39:20.624Z,1012.50
2018-12-30T04:40:20.613Z,1012.57
2018-12-30T04:41:20.607Z,1012.63
2018-12-30T04:42:20.595Z,1012.66
2018-12-30T04:43:20.581Z,1012.62
2018-12-30T04:44:20.569Z,1012.59
2018-12-30T04:45:20.561Z,1012.62
2018-12-30T04:46:20.549Z,1012.74
2018-12-30T04:47:20.539Z,1012.68
2018-12-30T04:48:20.529Z,1012.69
2018-12-30T04:49:20.516Z,1012.68
2018-12-30T04:50:20.510Z,1012.79
2018-12-30T04:51:20.495Z,1012.70
2018-12-30T04:52:25.661Z,1012.78
2018-12-30T04:53:21.473Z,1012.77
2018-12-30T04:54:20.464Z,1012.80
2018-12-30T04:55:20.451Z,1012.79
2018-12-30T04:56:20.444Z,1012.86
2018-12-30T04:57:20.435Z,1012.84
2018-12-30T04:58:20.419Z,1012.88
2018-12-30T04:59:20.410Z,1012.91
2018-12-30T05:00:20.404Z,1012.93
2018-12-30T05:01:20.388Z,1012.88
2018-12-30T05:02:20.381Z,1012.94
2018-12-30T05:03:20.367Z,1012.97
2018-12-30T05:04:20.359Z,1012.99
2018-12-30T05:05:20.347Z,1012.99
2018-12-30T05:06:20.336Z,1012.98
2018-12-30T05:07:20.328Z,1012.99
2018-12-30T05:08:20.316Z,1013.06
2018-12-30T05:09:20.310Z,1013.00
2018-12-30T05:10:20.293Z,1013.12
2018-12-30T05:11:20.280Z,1013.17
2018-12-30T05:12:20.273Z,1013.06
2018-12-30T05:13:20.259Z,1013.13
2018-12-30T05:14:20.248Z,1013.14
2018-12-30T05:15:20.238Z,1013.15
2018-12-30T05:16:20.229Z,1013.15
2018-12-30T05:17:20.217Z,1013.20
2018-12-30T05:18:20.205Z,1013.23
2018-12-30T05:19:20.195Z,1013.26
2018-12-30T05:20:20.184Z,1013.24
2018-12-30T05:21:20.176Z,1013.33
2018-12-30T05:22:20.163Z,1013.34
2018-12-30T05:23:20.164Z,1013.37
2018-12-30T05:24:20.142Z,1013.33
2018-12-30T05:25:20.132Z,1013.37
2018-12-30T05:26:20.120Z,1013.44
2018-12-30T05:27:20.116Z,1013.45
2018-12-30T05:28:20.106Z,1013.53
2018-12-30T05:29:20.092Z,1013.49
2018-12-30T05:30:20.083Z,1013.50
2018-12-30T05:31:20.067Z,1013.52
2018-12-30T05:32:20.056Z,1013.52
2018-12-30T05:33:20.046Z,1013.62
2018-12-30T05:34:20.035Z,1013.67
2018-12-30T05:35:20.026Z,1013.64
2018-12-30T05:36:20.021Z,1013.67
2018-12-30T05:37:20.001Z,1013.65
2018-12-30T05:38:19.995Z,1013.72
2018-12-30T05:39:19.981Z,1013.68
2018-12-30T05:40:19.969Z,1013.64
2018-12-30T05:41:19.963Z,1013.69
2018-12-30T05:42:19.949Z,1013.60
2018-12-30T05:43:19.938Z,1013.76
2018-12-30T05:44:19.933Z,1013.74
2018-12-30T05:45:19.916Z,1013.72
2018-12-30T05:46:19.907Z,1013.71
2018-12-30T05:47:19.897Z,1013.87
2018-12-30T05:48:19.884Z,1013.80
2018-12-30T05:49:19.873Z,1013.90
2018-12-30T05:50:19.864Z,1013.95
2018-12-30T05:51:19.854Z,1013.95
2018-12-30T05:52:19.843Z,1013.95
2018-12-30T05:53:19.836Z,1014.06
2018-12-30T05:54:19.819Z,1013.98
2018-12-30T05:55:19.809Z,1013.98
2018-12-30T05:56:19.798Z,1014.07
2018-12-30T05:57:19.790Z,1014.11
2018-12-30T05:58:19.776Z,1013.96
2018-12-30T05:59:19.769Z,1014.10
2018-12-30T06:00:19.756Z,1014.13
2018-12-30T06:01:19.748Z,1014.21
2018-12-30T06:02:19.733Z,1014.19
2018-12-30T06:03:19.723Z,1014.21
2018-12-30T06:04:19.712Z,1014.28
2018-12-30T06:05:19.703Z,1014.27
2018-12-30T06:06:19.690Z,1014.37
2018-12-30T06:07:19.680Z,1014.38
2018-12-30T06:08:19.668Z,1014.28
2018-12-30T06:09:19.659Z,1014.50
2018-12-30T06:10:19.650Z,1014.52
2018-12-30T06:11:19.638Z,1014.50
2018-12-30T06:12:19.626Z,1014.63
2018-12-30T06:13:19.618Z,1014.62
2018-12-30T06:14:19.607Z,1014.66
2018-12-30T06:15:19.599Z,1014.63
2018-12-30T06:16:19.586Z,1014.67
2018-12-30T06:17:19.571Z,1014.75
2018-12-30T06:18:19.562Z,1014.90
2018-12-30T06:19:19.556Z,1014.89
2018-12-30T06:20:19.541Z,1014.85
2018-12-30T06:21:19.533Z,1014.88
2018-12-30T06:22:19.524Z,1014.92
2018-12-30T06:23:19.511Z,1014.94
2018-12-30T06:24:19.501Z,1015.07
2018-12-30T06:25:19.488Z,1015.07
2018-12-30T06:26:19.476Z,1015.10
2018-12-30T06:27:19.469Z,1015.13
2018-12-30T06:28:19.472Z,1015.07
2018-12-30T06:29:19.444Z,1015.20
2018-12-30T06:30:19.432Z,1015.19
2018-12-30T06:31:19.423Z,1015.15
2018-12-30T06:32:19.411Z,1015.20
2018-12-30T06:33:19.401Z,1015.25
2018-12-30T06:34:19.391Z,1015.15
2018-12-30T06:35:19.380Z,1015.20
2018-12-30T06:36:19.369Z,1015.24
2018-12-30T06:37:19.359Z,1015.33
2018-12-30T06:38:19.350Z,1015.33
2018-12-30T06:39:19.338Z,1015.33
2018-12-30T06:40:19.327Z,1015.28
2018-12-30T06:41:19.316Z,1015.29
2018-12-30T06:42:19.305Z,1015.44
2018-12-30T06:43:19.294Z,1015.46
2018-12-30T06:44:19.285Z,1015.50
2018-12-30T06:45:19.273Z,1015.51
2018-12-30T06:46:19.262Z,1015.51
2018-12-30T06:47:19.250Z,1015.71
2018-12-30T06:48:19.243Z,1015.57
2018-12-30T06:49:19.231Z,1015.64
2018-12-30T06:50:19.223Z,1015.66
2018-12-30T06:51:19.209Z,1015.83
2018-12-30T06:52:19.200Z,1015.65
2018-12-30T06:53:19.187Z,1015.80
2018-12-30T06:54:19.181Z,1015.76
2018-12-30T06:55:19.202Z,1015.69
2018-12-30T06:56:19.157Z,1015.84
2018-12-30T06:57:19.157Z,1015.81
2018-12-30T06:58:19.133Z,1015.92
2018-12-30T06:59:19.124Z,1015.90
2018-12-30T07:00:19.113Z,1015.93
2018-12-30T07:01:19.103Z,1015.99
2018-12-30T07:02:19.092Z,1015.82
2018-12-30T07:03:19.088Z,1015.94
2018-12-30T07:04:19.072Z,1015.98
2018-12-30T07:05:19.058Z,1015.79
2018-12-30T07:06:19.051Z,1015.93
2018-12-30T07:07:19.038Z,1015.99
2018-12-30T07:08:19.028Z,1016.08
2018-12-30T07:09:19.019Z,1016.12
2018-12-30T07:10:19.005Z,1016.08
2018-12-30T07:11:18.994Z,1016.07
2018-12-30T07:12:18.987Z,1016.10
2018-12-30T07:13:18.976Z,1016.11
2018-12-30T07:14:18.965Z,1016.14
2018-12-30T07:15:18.966Z,1016.17
2018-12-30T07:16:18.943Z,1015.86
2018-12-30T07:17:18.932Z,1016.39
2018-12-30T07:18:18.922Z,1016.34
2018-12-30T07:19:18.910Z,1016.34
2018-12-30T07:20:18.899Z,1016.28
2018-12-30T07:21:18.889Z,1016.27
2018-12-30T07:22:18.876Z,1016.36
2018-12-30T07:23:18.869Z,1016.38
2018-12-30T07:24:18.868Z,1016.42
2018-12-30T07:25:18.845Z,1016.45
2018-12-30T07:26:18.834Z,1016.57
2018-12-30T07:27:18.826Z,1016.59
2018-12-30T07:28:18.813Z,1016.64
2018-12-30T07:29:18.809Z,1016.50
2018-12-30T07:30:18.795Z,1016.64
2018-12-30T07:31:18.781Z,1016.58
2018-12-30T07:32:18.769Z,1016.59
2018-12-30T07:33:18.760Z,1016.66
2018-12-30T07:34:18.747Z,1016.69
2018-12-30T07:35:18.742Z,1016.78
2018-12-30T07:36:18.729Z,1016.72
2018-12-30T07:37:18.719Z,1016.80
2018-12-30T07:38:18.706Z,1016.75
2018-12-30T07:39:18.694Z,1016.95
2018-12-30T07:40:18.684Z,1016.78
2018-12-30T07:41:18.680Z,1016.97
2018-12-30T07:42:18.668Z,1016.92
2018-12-30T07:43:18.653Z,1016.85
2018-12-30T07:44:18.646Z,1016.94
2018-12-30T07:45:18.632Z,1016.97
2018-12-30T07:46:18.623Z,1017.00
2018-12-30T07:47:18.611Z,1017.09
2018-12-30T07:48:18.599Z,1017.08
2018-12-30T07:49:18.598Z,1017.11
2018-12-30T07:50:18.579Z,1017.13
2018-12-30T07:51:18.567Z,1017.33
2018-12-30T07:52:18.557Z,1017.19
2018-12-30T07:53:18.548Z,1017.17
2018-12-30T07:54:18.550Z,1017.33
2018-12-30T07:55:18.530Z,1017.29
2018-12-30T07:56:18.513Z,1017.41
2018-12-30T07:57:18.504Z,1017.45
2018-12-30T07:58:18.496Z,1017.37
2018-12-30T07:59:18.482Z,1017.32
2018-12-30T08:00:18.470Z,1017.49
2018-12-30T08:01:18.462Z,1017.40
2018-12-30T08:02:18.450Z,1017.47
2018-12-30T08:03:18.437Z,1017.38
2018-12-30T08:04:18.427Z,1017.48
2018-12-30T08:05:18.416Z,1017.50
2018-12-30T08:06:18.408Z,1017.61
2018-12-30T08:07:18.393Z,1017.61
2018-12-30T08:08:18.383Z,1017.59
2018-12-30T08:09:18.373Z,1017.57
2018-12-30T08:10:18.385Z,1017.64
2018-12-30T08:11:18.353Z,1017.73
2018-12-30T08:12:18.341Z,1017.76
2018-12-30T08:13:18.331Z,1017.68
2018-12-30T08:14:18.320Z,1017.77
2018-12-30T08:15:18.311Z,1017.77
2018-12-30T08:16:18.303Z,1017.80
2018-12-30T08:17:18.296Z,1017.74
2018-12-30T08:18:18.277Z,1017.79
2018-12-30T08:19:18.266Z,1017.83
2018-12-30T08:20:18.254Z,1017.82
2018-12-30T08:21:18.245Z,1017.80
2018-12-30T08:22:18.234Z,1017.88
2018-12-30T08:23:21.794Z,1017.79
2018-12-30T08:24:19.209Z,1017.83
2018-12-30T08:25:18.203Z,1017.81
2018-12-30T08:26:18.277Z,1017.80
2018-12-30T08:27:18.188Z,1017.85
2018-12-30T08:28:24.983Z,1017.81
2018-12-30T08:29:19.158Z,1017.84
2018-12-30T08:30:18.161Z,1017.85
2018-12-30T08:31:18.140Z,1017.87
2018-12-30T08:32:18.134Z,1018.01
2018-12-30T08:33:18.124Z,1017.98
2018-12-30T08:34:18.106Z,1018.04
2018-12-30T08:35:18.096Z,1018.06
2018-12-30T08:36:18.085Z,1017.86
2018-12-30T08:37:18.080Z,1017.92
2018-12-30T08:38:18.063Z,1018.07
2018-12-30T08:39:18.053Z,1018.03
2018-12-30T08:40:18.041Z,1018.03
2018-12-30T08:41:18.033Z,1018.03
2018-12-30T08:42:18.036Z,1018.07
2018-12-30T08:43:18.007Z,1017.96
2018-12-30T08:44:17.998Z,1018.00
2018-12-30T08:45:17.993Z,1018.04
2018-12-30T08:46:17.976Z,1018.10
2018-12-30T08:47:17.967Z,1018.09
2018-12-30T08:48:17.957Z,1018.05
2018-12-30T08:49:17.949Z,1018.13
2018-12-30T08:50:17.979Z,1018.16
2018-12-30T08:51:17.941Z,1018.10
2018-12-30T08:52:17.917Z,1018.16
2018-12-30T08:53:17.903Z,1018.14
2018-12-30T08:54:17.901Z,1018.18
2018-12-30T08:55:17.879Z,1018.20
2018-12-30T08:56:17.871Z,1018.27
2018-12-30T08:57:17.859Z,1018.26
2018-12-30T08:58:17.849Z,1018.34
2018-12-30T08:59:17.837Z,1018.23
2018-12-30T09:00:17.829Z,1018.29
2018-12-30T09:01:17.816Z,1018.32
2018-12-30T09:02:17.812Z,1018.41
2018-12-30T09:03:17.794Z,1018.36
2018-12-30T09:04:17.785Z,1018.33
2018-12-30T09:05:17.773Z,1018.43
2018-12-30T09:06:17.762Z,1018.43
2018-12-30T09:07:17.751Z,1018.44
2018-12-30T09:08:17.741Z,1018.42
2018-12-30T09:09:17.729Z,1018.51
2018-12-30T09:10:17.724Z,1018.50
2018-12-30T09:11:17.710Z,1018.45
2018-12-30T09:12:17.702Z,1018.43
2018-12-30T09:13:17.690Z,1018.46
2018-12-30T09:14:17.677Z,1018.56
2018-12-30T09:15:17.666Z,1018.52
2018-12-30T09:16:17.657Z,1018.54
2018-12-30T09:17:18.429Z,1018.43
2018-12-30T09:18:17.635Z,1018.65
2018-12-30T09:19:17.624Z,1018.63
2018-12-30T09:20:17.617Z,1018.62
2018-12-30T09:21:17.604Z,1018.76
2018-12-30T09:22:17.593Z,1018.68
2018-12-30T09:23:19.272Z,1018.56
2018-12-30T09:24:17.568Z,1018.59
2018-12-30T09:25:17.572Z,1018.72
2018-12-30T09:26:17.548Z,1018.74
2018-12-30T09:27:17.538Z,1018.72
2018-12-30T09:28:17.542Z,1018.75
2018-12-30T09:29:17.517Z,1018.79
2018-12-30T09:30:17.506Z,1018.80
2018-12-30T09:31:17.494Z,1018.77
2018-12-30T09:32:17.489Z,1018.80
2018-12-30T09:33:17.480Z,1018.89
2018-12-30T09:34:17.462Z,1018.87
2018-12-30T09:35:17.461Z,1018.87
2018-12-30T09:36:17.441Z,1018.89
2018-12-30T09:37:17.437Z,1018.95
2018-12-30T09:38:17.418Z,1019.01
2018-12-30T09:39:17.411Z,1018.96
2018-12-30T09:40:17.400Z,1018.86
2018-12-30T09:41:17.804Z,1018.86
2018-12-30T09:42:17.377Z,1018.87
2018-12-30T09:43:17.372Z,1018.87
2018-12-30T09:44:17.357Z,1018.81
2018-12-30T09:45:17.345Z,1018.88
2018-12-30T09:46:17.335Z,1018.91
2018-12-30T09:47:17.323Z,1018.95
2018-12-30T09:48:17.317Z,1018.91
2018-12-30T09:49:17.302Z,1018.99
2018-12-30T09:50:17.297Z,1018.99
2018-12-30T09:51:17.289Z,1019.07
2018-12-30T09:52:17.273Z,1018.93
2018-12-30T09:53:17.262Z,1018.99
2018-12-30T09:54:17.248Z,1018.97
2018-12-30T09:55:17.242Z,1019.13
2018-12-30T09:56:17.231Z,1019.01
2018-12-30T09:57:17.220Z,1019.08
2018-12-30T09:58:17.206Z,1019.00
2018-12-30T09:59:17.207Z,1019.08
2018-12-30T10:00:17.190Z,1019.07
2018-12-30T10:01:17.174Z,1018.95
2018-12-30T10:02:17.163Z,1018.95
2018-12-30T10:03:17.161Z,1019.03
2018-12-30T10:04:17.142Z,1018.99
2018-12-30T10:05:17.131Z,1019.02
2018-12-30T10:06:17.122Z,1019.05
2018-12-30T10:07:17.110Z,1019.17
2018-12-30T10:08:17.097Z,1019.10
2018-12-30T10:09:17.093Z,1019.18
2018-12-30T10:10:17.077Z,1019.07
2018-12-30T10:11:17.137Z,1019.19
2018-12-30T10:12:17.058Z,1019.14
2018-12-30T10:13:17.048Z,1019.18
2018-12-30T10:14:17.036Z,1019.21
2018-12-30T10:15:17.026Z,1019.24
2018-12-30T10:16:17.013Z,1019.24
2018-12-30T10:17:17.001Z,1019.24
2018-12-30T10:18:16.993Z,1019.26
2018-12-30T10:19:16.980Z,1019.22
2018-12-30T10:20:16.976Z,1019.22
2018-12-30T10:21:16.959Z,1019.23
2018-12-30T10:22:16.949Z,1019.23
2018-12-30T10:23:16.940Z,1019.18
2018-12-30T10:24:16.927Z,1019.18
2018-12-30T10:25:16.919Z,1019.23
2018-12-30T10:26:16.906Z,1019.27
2018-12-30T10:27:16.894Z,1019.11
2018-12-30T10:28:16.886Z,1019.10
2018-12-30T10:29:16.877Z,1019.19
2018-12-30T10:30:16.863Z,1019.22
2018-12-30T10:31:16.851Z,1019.19
2018-12-30T10:32:16.840Z,1019.18
2018-12-30T10:33:16.833Z,1019.23
2018-12-30T10:34:16.822Z,1019.18
2018-12-30T10:35:16.812Z,1019.22
2018-12-30T10:36:16.797Z,1019.26
2018-12-30T10:37:16.788Z,1019.25
2018-12-30T10:38:16.776Z,1019.30
2018-12-30T10:39:16.766Z,1019.25
2018-12-30T10:40:16.758Z,1019.28
2018-12-30T10:41:16.745Z,1019.43
2018-12-30T10:42:16.734Z,1019.32
2018-12-30T10:43:16.736Z,1019.34
2018-12-30T10:44:16.716Z,1019.30
2018-12-30T10:45:16.701Z,1019.36
2018-12-30T10:46:16.691Z,1019.31
2018-12-30T10:47:16.683Z,1019.32
2018-12-30T10:48:16.670Z,1019.31
2018-12-30T10:49:16.658Z,1019.31
2018-12-30T10:50:16.647Z,1019.25
2018-12-30T10:51:16.637Z,1019.28
2018-12-30T10:52:16.629Z,1019.29
2018-12-30T10:53:16.615Z,1019.29
2018-12-30T10:54:16.603Z,1019.29
2018-12-30T10:55:16.609Z,1019.22
2018-12-30T10:56:16.586Z,1019.25
2018-12-30T10:57:16.574Z,1019.17
2018-12-30T10:58:16.562Z,1019.15
2018-12-30T10:59:16.556Z,1019.21
2018-12-30T11:00:16.545Z,1019.31
2018-12-30T11:01:16.530Z,1019.28
2018-12-30T11:02:16.520Z,1019.33
2018-12-30T11:03:16.510Z,1019.27
2018-12-30T11:04:16.501Z,1019.24
2018-12-30T11:05:16.488Z,1019.27
2018-12-30T11:06:16.476Z,1019.27
2018-12-30T11:07:16.466Z,1019.16
2018-12-30T11:08:16.456Z,1019.20
2018-12-30T11:09:16.449Z,1019.23
2018-12-30T11:10:16.433Z,1019.21
2018-12-30T11:11:16.427Z,1019.27
2018-12-30T11:12:16.412Z,1019.28
2018-12-30T11:13:16.403Z,1019.28
2018-12-30T11:14:16.391Z,1019.29
2018-12-30T11:15:16.380Z,1019.21
2018-12-30T11:16:16.370Z,1019.23
2018-12-30T11:17:16.360Z,1019.21
2018-12-30T11:18:16.349Z,1019.26
2018-12-30T11:19:16.484Z,1019.29
2018-12-30T11:20:16.327Z,1019.28
2018-12-30T11:21:16.316Z,1019.25
2018-12-30T11:22:16.312Z,1019.26
2018-12-30T11:23:16.296Z,1019.19
2018-12-30T11:24:16.285Z,1019.29
2018-12-30T11:25:16.274Z,1019.26
2018-12-30T11:26:16.264Z,1019.25
2018-12-30T11:27:16.251Z,1019.32
2018-12-30T11:28:16.243Z,1019.23
2018-12-30T11:29:16.230Z,1019.23
2018-12-30T11:30:16.221Z,1019.28
2018-12-30T11:31:16.210Z,1019.30
2018-12-30T11:32:16.204Z,1019.28
2018-12-30T11:33:16.192Z,1019.30
2018-12-30T11:34:16.177Z,1019.29
2018-12-30T11:35:16.166Z,1019.30
2018-12-30T11:36:17.625Z,1019.36
2018-12-30T11:37:16.146Z,1019.27
2018-12-30T11:38:16.134Z,1019.30
2018-12-30T11:39:16.126Z,1019.23
2018-12-30T11:40:16.113Z,1019.28
2018-12-30T11:41:16.102Z,1019.29
2018-12-30T11:42:16.090Z,1019.26
2018-12-30T11:43:16.086Z,1019.21
2018-12-30T11:44:16.069Z,1019.24
2018-12-30T11:45:16.061Z,1019.14
2018-12-30T11:46:16.049Z,1019.16
2018-12-30T11:47:16.038Z,1019.14
2018-12-30T11:48:16.028Z,1019.12
2018-12-30T11:49:16.015Z,1019.13
2018-12-30T11:50:16.006Z,1019.14
2018-12-30T11:51:15.995Z,1019.11
2018-12-30T11:52:15.985Z,1019.08
2018-12-30T11:53:15.976Z,1019.15
2018-12-30T11:54:16.588Z,1019.03
2018-12-30T11:55:15.953Z,1019.11
2018-12-30T11:56:15.942Z,1019.16
2018-12-30T11:57:15.934Z,1019.13
2018-12-30T11:58:15.920Z,1019.11
2018-12-30T11:59:15.910Z,1019.19
2018-12-30T12:00:15.901Z,1019.18
2018-12-30T12:01:15.889Z,1019.22
2018-12-30T12:02:15.878Z,1019.23
2018-12-30T12:03:15.866Z,1019.24
2018-12-30T12:04:15.856Z,1019.20
2018-12-30T12:05:15.844Z,1019.29